Time;durP1;ratioP1;P1;durP2;ratioP2;P2;SDS_P1;SDS_P2;PMS_P1;PMS_P2;Temp;Humidity;BMP_temperature;BMP_pressure;BME280_temperature;BME280_humidity;BME280_pressure;Samples;Min_cycle;Max_cycle;Signal;HPM_P1;HPM_P2
2021/10/28 00:13:01;;;;;;;18.67;11.00;;;;;;;;;;4994158;28;20213;-77
2021/10/28 00:15:38;;;;;;;17.38;9.55;;;;;;;;;;4993050;28;20230;-78
2021/10/28 00:18:13;;;;;;;18.23;11.43;;;;;;;;;;4994184;28;20541;-77
2021/10/28 00:20:40;;;;;;;14.45;9.45;;;;;;;;;;4994171;28;20179;-78
2021/10/28 00:23:07;;;;;;;12.27;9.57;;;;;;;;;;4993309;28;20738;-78
2021/10/28 00:25:34;;;;;;;17.00;10.25;;;;;;;;;;4993976;28;20295;-77
2021/10/28 00:28:00;;;;;;;20.65;10.63;;;;;;;;;;4993884;28;20259;-77
2021/10/28 00:30:27;;;;;;;18.65;9.57;;;;;;;;;;4993843;28;20179;-77
2021/10/28 00:32:53;;;;;;;17.17;10.68;;;;;;;;;;4993572;28;20672;-76
2021/10/28 00:35:19;;;;;;;15.87;10.57;;;;;;;;;;4991974;28;20318;-77
2021/10/28 00:37:46;;;;;;;14.88;10.20;;;;;;;;;;4993947;28;20415;-75
2021/10/28 00:40:12;;;;;;;20.27;10.63;;;;;;;;;;4993864;28;20167;-76
2021/10/28 00:42:38;;;;;;;18.83;10.35;;;;;;;;;;4993380;28;20573;-77
2021/10/28 00:45:05;;;;;;;18.33;10.60;;;;;;;;;;4993658;28;20544;-78
2021/10/28 00:47:33;;;;;;;18.95;10.93;;;;;;;;;;4993552;28;20655;-77
2021/10/28 00:49:59;;;;;;;18.88;9.68;;;;;;;;;;4993819;28;20172;-77
2021/10/28 00:52:25;;;;;;;14.48;9.88;;;;;;;;;;4993241;28;20290;-78
2021/10/28 00:54:51;;;;;;;13.50;9.65;;;;;;;;;;4993913;28;20307;-78
2021/10/28 00:57:17;;;;;;;12.55;9.38;;;;;;;;;;4993760;28;20185;-78
2021/10/28 00:59:44;;;;;;;16.42;10.20;;;;;;;;;;4993682;28;20246;-76
2021/10/28 01:02:11;;;;;;;15.38;9.75;;;;;;;;;;4993311;28;20287;-76
2021/10/28 01:04:38;;;;;;;13.75;9.13;;;;;;;;;;4993688;28;20183;-77
2021/10/28 01:07:04;;;;;;;15.63;9.20;;;;;;;;;;4993648;28;20547;-77
2021/10/28 01:09:33;;;;;;;14.32;9.55;;;;;;;;;;4992144;28;20281;-77
2021/10/28 01:11:59;;;;;;;20.33;9.90;;;;;;;;;;4993023;28;20611;-77
2021/10/28 01:14:25;;;;;;;14.27;10.05;;;;;;;;;;4993518;28;20214;-77
2021/10/28 01:16:57;;;;;;;16.23;9.70;;;;;;;;;;4993542;28;20176;-75
2021/10/28 01:19:25;;;;;;;12.63;8.90;;;;;;;;;;4993356;28;20462;-77
2021/10/28 01:21:51;;;;;;;12.02;8.55;;;;;;;;;;4992954;28;20192;-78
2021/10/28 01:24:17;;;;;;;17.42;8.80;;;;;;;;;;4992647;28;20651;-76
2021/10/28 01:26:44;;;;;;;10.63;8.60;;;;;;;;;;4993465;28;20195;-76
2021/10/28 01:29:12;;;;;;;14.75;8.40;;;;;;;;;;4993257;28;20411;-78
2021/10/28 01:31:38;;;;;;;13.13;8.75;;;;;;;;;;4992665;28;20214;-75
2021/10/28 01:34:05;;;;;;;15.80;9.43;;;;;;;;;;4992000;28;20187;-79
2021/10/28 01:36:31;;;;;;;11.05;8.98;;;;;;;;;;4993390;28;20537;-77
2021/10/28 01:38:58;;;;;;;14.90;8.88;;;;;;;;;;4993319;28;20207;-77
2021/10/28 01:41:26;;;;;;;15.82;8.90;;;;;;;;;;4993190;28;20172;-77
2021/10/28 01:43:53;;;;;;;11.73;9.18;;;;;;;;;;4993338;28;20168;-78
2021/10/28 01:46:22;;;;;;;14.95;9.15;;;;;;;;;;4995815;28;20575;-77
2021/10/28 01:48:48;;;;;;;15.73;8.05;;;;;;;;;;4995751;28;20628;-78
2021/10/28 01:51:19;;;;;;;14.55;8.80;;;;;;;;;;4996593;28;20221;-76
2021/10/28 01:53:45;;;;;;;15.20;7.90;;;;;;;;;;4996678;28;20732;-78
2021/10/28 01:56:11;;;;;;;14.87;9.43;;;;;;;;;;4996518;28;20298;-76
2021/10/28 01:58:38;;;;;;;15.57;9.55;;;;;;;;;;4996453;28;20461;-78
2021/10/28 02:01:07;;;;;;;11.60;7.57;;;;;;;;;;4996182;28;20180;-76
2021/10/28 02:03:33;;;;;;;10.75;7.53;;;;;;;;;;4996406;28;20279;-77
2021/10/28 02:06:01;;;;;;;13.15;7.20;;;;;;;;;;4995266;28;20270;-76
2021/10/28 02:08:27;;;;;;;12.30;7.43;;;;;;;;;;4996552;28;20584;-78
2021/10/28 02:10:53;;;;;;;13.83;7.80;;;;;;;;;;4996363;28;20183;-76
2021/10/28 02:13:20;;;;;;;12.43;7.50;;;;;;;;;;4996040;28;20441;-76
2021/10/28 02:15:46;;;;;;;14.30;7.70;;;;;;;;;;4996199;28;20211;-78
2021/10/28 02:18:12;;;;;;;14.25;8.85;;;;;;;;;;4996217;28;20182;-78
2021/10/28 02:20:39;;;;;;;10.70;8.57;;;;;;;;;;4996221;28;20178;-78
2021/10/28 02:23:06;;;;;;;19.00;7.95;;;;;;;;;;4995651;28;20211;-76
2021/10/28 02:25:32;;;;;;;13.00;8.20;;;;;;;;;;4996095;28;20526;-78
2021/10/28 02:27:58;;;;;;;11.50;8.23;;;;;;;;;;4995867;28;20187;-78
2021/10/28 02:30:25;;;;;;;13.63;8.40;;;;;;;;;;4995817;28;20540;-77
2021/10/28 02:32:52;;;;;;;15.25;9.35;;;;;;;;;;4995729;28;20599;-78
2021/10/28 02:35:18;;;;;;;13.15;8.60;;;;;;;;;;4995821;28;20215;-76
2021/10/28 02:37:46;;;;;;;15.80;9.20;;;;;;;;;;4994603;28;20180;-77
2021/10/28 02:40:12;;;;;;;15.63;9.00;;;;;;;;;;4995794;28;20183;-77
2021/10/28 02:42:39;;;;;;;14.45;8.45;;;;;;;;;;4995411;28;20228;-76
2021/10/28 02:45:05;;;;;;;13.65;9.13;;;;;;;;;;4995871;28;20262;-76
2021/10/28 02:47:31;;;;;;;15.60;9.40;;;;;;;;;;4995620;28;20179;-76
2021/10/28 02:49:57;;;;;;;21.10;10.38;;;;;;;;;;4995561;28;20191;-77
2021/10/28 02:52:24;;;;;;;19.00;10.00;;;;;;;;;;4993741;28;20702;-77
2021/10/28 02:54:52;;;;;;;18.95;11.02;;;;;;;;;;4994298;28;20215;-78
2021/10/28 02:57:18;;;;;;;24.85;11.75;;;;;;;;;;4993810;28;20547;-78
2021/10/28 02:59:44;;;;;;;23.48;11.40;;;;;;;;;;4995251;28;20180;-78
2021/10/28 03:02:10;;;;;;;20.67;10.93;;;;;;;;;;4995112;28;20199;-77
2021/10/28 03:04:37;;;;;;;22.50;11.50;;;;;;;;;;4995403;28;20415;-76
2021/10/28 03:07:03;;;;;;;20.55;11.63;;;;;;;;;;4995518;28;20579;-78
2021/10/28 03:09:29;;;;;;;19.48;11.23;;;;;;;;;;4995348;28;20168;-77
2021/10/28 03:11:58;;;;;;;30.20;13.93;;;;;;;;;;4994777;28;20274;-77
2021/10/28 03:14:31;;;;;;;26.70;12.85;;;;;;;;;;4994987;28;20253;-77
2021/10/28 03:27:32;;;;;;;25.40;13.63;;;;;;;;;;4995020;28;20229;-76
2021/10/28 03:29:58;;;;;;;22.88;11.25;;;;;;;;;;4994848;28;20176;-78
2021/10/28 03:32:25;;;;;;;20.80;12.70;;;;;;;;;;4994244;28;20234;-78
2021/10/28 03:34:52;;;;;;;27.45;14.85;;;;;;;;;;4994482;28;20199;-78
2021/10/28 03:37:28;;;;;;;18.15;12.40;;;;;;;;;;4994698;28;20175;-76
2021/10/28 03:53:46;;;;;;;25.15;14.25;;;;;;;;;;4994093;28;20523;-75
2021/10/28 04:04:36;;;;;;;27.73;13.27;;;;;;;;;;4994592;28;20532;-78
2021/10/28 04:18:34;;;;;;;23.92;13.18;;;;;;;;;;4994475;28;20710;-75
2021/10/28 04:20:50;;;;;;;29.25;14.43;;;;;;;;;;4988343;28;20262;-78
2021/10/28 04:31:20;;;;;;;29.08;15.55;;;;;;;;;;4993267;28;20573;-77
2021/10/28 04:33:46;;;;;;;30.33;16.90;;;;;;;;;;4993629;28;20186;-78
2021/10/28 04:36:12;;;;;;;37.75;18.38;;;;;;;;;;4992427;28;20835;-78
2021/10/28 04:38:38;;;;;;;37.83;17.75;;;;;;;;;;4993871;28;20186;-78
2021/10/28 04:41:04;;;;;;;47.78;20.17;;;;;;;;;;4993391;28;20175;-76
2021/10/28 04:43:30;;;;;;;44.70;20.33;;;;;;;;;;4992396;28;20567;-80
2021/10/28 04:45:57;;;;;;;48.85;21.05;;;;;;;;;;4993620;28;20179;-80
2021/10/28 04:48:23;;;;;;;54.25;22.30;;;;;;;;;;4993846;28;20179;-79
2021/10/28 04:50:50;;;;;;;51.20;21.30;;;;;;;;;;4992525;28;20175;-79
2021/10/28 04:53:16;;;;;;;54.00;21.25;;;;;;;;;;4993314;28;20431;-80
2021/10/28 04:55:45;;;;;;;44.40;22.33;;;;;;;;;;4992343;28;20207;-80
2021/10/28 04:58:11;;;;;;;51.67;21.98;;;;;;;;;;4993672;28;20270;-78
2021/10/28 05:00:37;;;;;;;49.97;23.63;;;;;;;;;;4993730;28;20609;-80
2021/10/28 05:03:03;;;;;;;68.28;25.33;;;;;;;;;;4993358;28;20911;-80
2021/10/28 05:05:29;;;;;;;61.17;27.00;;;;;;;;;;4993534;28;20184;-78
2021/10/28 05:07:55;;;;;;;59.55;26.40;;;;;;;;;;4993624;28;20468;-78
2021/10/28 05:10:21;;;;;;;57.00;25.67;;;;;;;;;;4993443;28;20184;-76
2021/10/28 05:12:47;;;;;;;52.93;27.50;;;;;;;;;;4993268;28;20454;-78
2021/10/28 05:15:13;;;;;;;57.97;26.98;;;;;;;;;;4993383;28;20560;-77
2021/10/28 05:17:39;;;;;;;57.90;25.60;;;;;;;;;;4993437;28;20234;-78
2021/10/28 05:20:05;;;;;;;67.97;28.42;;;;;;;;;;4994302;28;20175;-78
2021/10/28 05:22:31;;;;;;;67.32;26.73;;;;;;;;;;4996917;28;20192;-77
2021/10/28 05:24:57;;;;;;;70.70;30.20;;;;;;;;;;4997205;28;20310;-78
2021/10/28 05:27:23;;;;;;;63.28;28.45;;;;;;;;;;4996932;28;20176;-79
2021/10/28 05:29:49;;;;;;;71.40;29.63;;;;;;;;;;4997056;28;20190;-79
2021/10/28 05:32:15;;;;;;;72.88;32.95;;;;;;;;;;4996552;28;20943;-78
2021/10/28 05:34:44;;;;;;;65.20;29.50;;;;;;;;;;4996886;28;20190;-78
2021/10/28 05:37:10;;;;;;;70.65;32.53;;;;;;;;;;4996719;28;20606;-77
2021/10/28 05:39:35;;;;;;;65.40;29.27;;;;;;;;;;4996582;28;20219;-76
2021/10/28 05:42:01;;;;;;;75.33;31.43;;;;;;;;;;4995252;28;20468;-78
2021/10/28 05:44:27;;;;;;;65.03;28.87;;;;;;;;;;4995468;28;20407;-77
2021/10/28 05:46:53;;;;;;;67.78;29.92;;;;;;;;;;4994553;28;20418;-78
2021/10/28 05:49:19;;;;;;;61.50;28.67;;;;;;;;;;4996769;28;20234;-80
2021/10/28 05:51:47;;;;;;;61.15;29.08;;;;;;;;;;4996328;28;20703;-79
2021/10/28 05:54:13;;;;;;;60.17;28.58;;;;;;;;;;4996469;28;20195;-80
2021/10/28 05:56:39;;;;;;;63.65;27.17;;;;;;;;;;4996880;28;20270;-77
2021/10/28 05:59:05;;;;;;;59.42;28.30;;;;;;;;;;4996736;28;20203;-79
2021/10/28 06:01:31;;;;;;;53.43;27.57;;;;;;;;;;4996300;28;20195;-79
2021/10/28 06:03:57;;;;;;;59.28;27.58;;;;;;;;;;4996341;28;20410;-78
2021/10/28 06:06:23;;;;;;;55.95;25.95;;;;;;;;;;4995412;28;20198;-78
2021/10/28 06:08:49;;;;;;;54.63;26.17;;;;;;;;;;4996446;28;20258;-80
2021/10/28 06:11:16;;;;;;;53.13;24.02;;;;;;;;;;4996029;28;20502;-79
2021/10/28 06:13:44;;;;;;;44.90;22.65;;;;;;;;;;4996349;28;20717;-79
2021/10/28 06:16:11;;;;;;;67.75;24.90;;;;;;;;;;4996407;28;20234;-79
2021/10/28 06:18:39;;;;;;;49.53;22.80;;;;;;;;;;4996320;28;20176;-80
2021/10/28 06:21:05;;;;;;;54.65;23.85;;;;;;;;;;4994676;28;20187;-77
2021/10/28 06:23:32;;;;;;;43.90;22.27;;;;;;;;;;4996099;28;20203;-78
2021/10/28 06:25:58;;;;;;;43.70;21.20;;;;;;;;;;4994993;28;20222;-79
2021/10/28 06:28:24;;;;;;;42.80;20.25;;;;;;;;;;4994819;28;20176;-81
2021/10/28 06:30:50;;;;;;;41.50;22.17;;;;;;;;;;4995887;28;20214;-79
2021/10/28 06:33:21;;;;;;;43.45;20.25;;;;;;;;;;4994840;28;20664;-78
2021/10/28 06:35:48;;;;;;;38.72;21.20;;;;;;;;;;4995766;28;20298;-77
2021/10/28 06:38:14;;;;;;;43.30;20.80;;;;;;;;;;4995833;28;20168;-79
2021/10/28 06:40:40;;;;;;;35.13;19.98;;;;;;;;;;4995007;28;20384;-80
2021/10/28 06:43:07;;;;;;;38.25;21.20;;;;;;;;;;4995582;28;20192;-79
2021/10/28 06:45:33;;;;;;;40.70;22.80;;;;;;;;;;4996054;28;20553;-77
2021/10/28 06:48:00;;;;;;;40.50;21.42;;;;;;;;;;4995801;28;20187;-79
2021/10/28 06:50:34;;;;;;;41.45;23.02;;;;;;;;;;4995858;28;20171;-79
2021/10/28 06:53:12;;;;;;;43.83;23.55;;;;;;;;;;4995225;28;20258;-79
2021/10/28 06:55:49;;;;;;;42.85;23.38;;;;;;;;;;4995617;28;20199;-80
2021/10/28 07:03:27;;;;;;;47.67;23.98;;;;;;;;;;4995691;28;20848;-80
2021/10/28 07:05:56;;;;;;;49.65;24.25;;;;;;;;;;4995733;28;20176;-78
2021/10/28 07:08:22;;;;;;;60.80;26.98;;;;;;;;;;4995603;28;20514;-78
2021/10/28 07:10:51;;;;;;;56.38;27.70;;;;;;;;;;4994160;28;20183;-78
2021/10/28 07:13:21;;;;;;;53.45;25.85;;;;;;;;;;4995152;28;20202;-79
2021/10/28 07:16:37;;;;;;;57.45;27.52;;;;;;;;;;4995404;28;20204;-79
2021/10/28 07:22:08;;;;;;;55.42;27.65;;;;;;;;;;4972402;28;20211;-79
2021/10/28 07:55:02;;;;;;;39.78;21.58;;;;;;;;;;4994853;28;20176;-78
2021/10/28 08:15:30;;;;;;;29.55;16.88;;;;;;;;;;4994648;28;20591;-78
2021/10/28 08:18:03;;;;;;;21.70;14.05;;;;;;;;;;4992938;28;20185;-79
2021/10/28 08:31:09;;;;;;;22.85;14.68;;;;;;;;;;4993943;28;20245;-77
2021/10/28 08:33:35;;;;;;;17.48;12.20;;;;;;;;;;4994010;28;20175;-78
2021/10/28 08:36:12;;;;;;;17.80;11.93;;;;;;;;;;4992425;28;20257;-77
2021/10/28 08:38:39;;;;;;;19.45;13.07;;;;;;;;;;4993820;28;20171;-77
2021/10/28 08:41:09;;;;;;;18.77;13.43;;;;;;;;;;4993443;28;20714;-79
2021/10/28 08:43:40;;;;;;;18.60;13.30;;;;;;;;;;4993811;28;20255;-76
2021/10/28 08:46:07;;;;;;;19.67;13.45;;;;;;;;;;4993893;28;20314;-78
2021/10/28 08:48:35;;;;;;;15.15;11.75;;;;;;;;;;4992836;28;20184;-77
2021/10/28 08:51:09;;;;;;;17.00;12.70;;;;;;;;;;4992420;28;20187;-79
2021/10/28 08:56:42;;;;;;;17.23;10.82;;;;;;;;;;4996936;28;20245;-77
2021/10/28 09:24:34;;;;;;;11.47;8.60;;;;;;;;;;4997493;28;20461;-78
2021/10/28 09:32:26;;;;;;;10.63;8.63;;;;;;;;;;4997029;28;20456;-78
2021/10/28 09:35:21;;;;;;;12.50;7.60;;;;;;;;;;4997149;28;20449;-77
2021/10/28 09:43:54;;;;;;;11.33;7.77;;;;;;;;;;4997118;28;20414;-78
2021/10/28 09:51:31;;;;;;;17.20;9.07;;;;;;;;;;4997379;28;20987;-78
2021/10/28 09:54:27;;;;;;;10.37;8.20;;;;;;;;;;4996911;28;20381;-78
2021/10/28 09:59:45;;;;;;;8.37;6.90;;;;;;;;;;4996852;28;20922;-78
2021/10/28 10:02:35;;;;;;;8.20;6.87;;;;;;;;;;4996550;28;20404;-79
2021/10/28 10:05:04;;;;;;;8.70;7.43;;;;;;;;;;4996815;28;20800;-78
2021/10/28 10:07:30;;;;;;;8.23;7.10;;;;;;;;;;4995375;28;20403;-78
2021/10/28 10:10:00;;;;;;;8.03;6.00;;;;;;;;;;4996693;28;20377;-77
2021/10/28 10:12:27;;;;;;;10.43;6.40;;;;;;;;;;4996090;28;20481;-79
2021/10/28 10:14:53;;;;;;;7.30;6.37;;;;;;;;;;4996376;28;20437;-78
2021/10/28 10:17:19;;;;;;;7.60;6.80;;;;;;;;;;4996568;28;20763;-79
2021/10/28 10:19:51;;;;;;;6.63;5.40;;;;;;;;;;4996195;28;20403;-76
2021/10/28 12:17:21;;;;;;;13.03;8.17;;;;;;;;;;4994325;28;20470;-76
2021/10/28 12:25:09;;;;;;;13.20;7.80;;;;;;;;;;4993881;28;20748;-76
2021/10/28 12:28:41;;;;;;;10.00;6.70;;;;;;;;;;4994072;28;20430;-77
2021/10/28 12:53:29;;;;;;;10.73;7.57;;;;;;;;;;4993329;28;21000;-77
2021/10/28 12:56:48;;;;;;;7.90;7.00;;;;;;;;;;4994005;28;20815;-79
2021/10/28 13:48:21;;;;;;;8.73;6.60;;;;;;;;;;4997028;28;20392;-77
2021/10/28 13:53:31;;;;;;;11.20;6.73;;;;;;;;;;4996381;28;20513;-77
2021/10/28 14:20:58;;;;;;;6.40;5.20;;;;;;;;;;4996671;28;20409;-75
2021/10/28 15:29:30;;;;;;;9.50;7.33;;;;;;;;;;4995493;28;20532;-76
2021/10/28 15:43:03;;;;;;;8.57;7.57;;;;;;;;;;4994396;28;20720;-76
2021/10/28 15:48:09;;;;;;;11.20;6.83;;;;;;;;;;4995910;28;20428;-78
2021/10/28 16:23:03;;;;;;;7.70;6.53;;;;;;;;;;4994031;28;20433;-76
2021/10/28 16:25:29;;;;;;;9.80;8.30;;;;;;;;;;4993927;28;20445;-75
2021/10/28 16:27:55;;;;;;;13.27;8.40;;;;;;;;;;4994043;28;20429;-76
2021/10/28 16:30:21;;;;;;;10.60;8.43;;;;;;;;;;4992550;28;20451;-78
2021/10/28 16:32:47;;;;;;;9.60;8.00;;;;;;;;;;4993586;28;20426;-77
2021/10/28 16:35:14;;;;;;;8.63;7.63;;;;;;;;;;4993855;28;20463;-76
2021/10/28 16:37:40;;;;;;;11.60;7.57;;;;;;;;;;4993969;28;20419;-76
2021/10/28 16:40:07;;;;;;;10.50;8.23;;;;;;;;;;4993555;28;20418;-76
2021/10/28 16:42:33;;;;;;;9.70;7.33;;;;;;;;;;4992895;28;20413;-78
2021/10/28 16:44:59;;;;;;;11.00;8.20;;;;;;;;;;4992514;28;20829;-76
2021/10/28 16:47:27;;;;;;;11.23;9.07;;;;;;;;;;4993696;28;20414;-78
2021/10/28 16:49:53;;;;;;;9.93;8.37;;;;;;;;;;4993515;28;20403;-77
2021/10/28 16:52:20;;;;;;;10.23;8.07;;;;;;;;;;4993324;28;20422;-77
2021/10/28 16:54:45;;;;;;;11.60;9.00;;;;;;;;;;4992258;28;20411;-76
2021/10/28 16:57:11;;;;;;;12.17;9.20;;;;;;;;;;4993621;28;20473;-74
2021/10/28 16:59:37;;;;;;;13.87;9.80;;;;;;;;;;4993646;28;20418;-77
2021/10/28 17:02:05;;;;;;;11.40;9.07;;;;;;;;;;4993281;28;20435;-76
2021/10/28 17:04:31;;;;;;;17.37;11.00;;;;;;;;;;4993677;28;20449;-76
2021/10/28 17:06:57;;;;;;;14.40;11.20;;;;;;;;;;4993511;28;20423;-77
2021/10/28 17:09:23;;;;;;;15.03;11.10;;;;;;;;;;4993750;28;20410;-76
2021/10/28 17:11:50;;;;;;;19.10;12.13;;;;;;;;;;4992150;28;20452;-76
2021/10/28 17:14:16;;;;;;;15.20;10.23;;;;;;;;;;4993931;28;20775;-76
2021/10/28 17:16:47;;;;;;;15.60;10.73;;;;;;;;;;4995160;28;20469;-78
2021/10/28 17:19:13;;;;;;;15.63;11.90;;;;;;;;;;4997646;28;20873;-76
2021/10/28 17:21:39;;;;;;;14.33;11.40;;;;;;;;;;4995809;28;20449;-79
2021/10/28 17:24:09;;;;;;;16.13;11.63;;;;;;;;;;4997206;28;20414;-77
2021/10/28 17:26:35;;;;;;;18.13;11.30;;;;;;;;;;4997347;28;20403;-75
2021/10/28 17:29:02;;;;;;;14.73;11.53;;;;;;;;;;4995762;28;20445;-81
2021/10/28 17:31:30;;;;;;;17.27;12.30;;;;;;;;;;4996864;28;20435;-76
2021/10/28 17:33:57;;;;;;;15.07;11.93;;;;;;;;;;4997234;28;20426;-75
2021/10/28 17:36:23;;;;;;;14.93;11.20;;;;;;;;;;4997216;28;20735;-77
2021/10/28 17:38:49;;;;;;;16.08;12.20;;;;;;;;;;4997122;28;20422;-77
2021/10/28 17:41:16;;;;;;;17.52;12.15;;;;;;;;;;4996631;28;20207;-75
2021/10/28 17:43:45;;;;;;;20.13;14.10;;;;;;;;;;4997185;28;20664;-77
2021/10/28 17:46:13;;;;;;;17.83;12.73;;;;;;;;;;4997150;28;20410;-77
2021/10/28 17:48:39;;;;;;;19.38;13.57;;;;;;;;;;4996978;28;20438;-79
2021/10/28 17:51:05;;;;;;;17.07;13.50;;;;;;;;;;4995364;28;20687;-76
2021/10/28 17:53:32;;;;;;;18.93;13.33;;;;;;;;;;4995478;28;20434;-77
2021/10/28 17:55:58;;;;;;;19.38;13.70;;;;;;;;;;4996780;28;20465;-77
2021/10/28 17:58:25;;;;;;;18.35;13.40;;;;;;;;;;4996941;28;20524;-76
2021/10/28 18:00:51;;;;;;;18.77;14.30;;;;;;;;;;4996560;28;20180;-75
2021/10/28 18:03:21;;;;;;;20.07;15.17;;;;;;;;;;4996171;28;20311;-77
2021/10/28 18:05:47;;;;;;;20.48;16.55;;;;;;;;;;4979828;28;20473;-79
2021/10/28 18:08:16;;;;;;;21.80;15.98;;;;;;;;;;4996632;28;20187;-75
2021/10/28 18:10:43;;;;;;;26.77;18.05;;;;;;;;;;4996579;28;20572;-76
2021/10/28 18:13:12;;;;;;;28.10;18.15;;;;;;;;;;4995931;28;20199;-77
2021/10/28 18:15:38;;;;;;;22.77;16.08;;;;;;;;;;4996294;28;20195;-76
2021/10/28 18:18:04;;;;;;;22.75;17.50;;;;;;;;;;4996320;28;20172;-77
2021/10/28 18:20:30;;;;;;;23.23;17.55;;;;;;;;;;4996436;28;20174;-77
2021/10/28 18:22:56;;;;;;;29.77;18.50;;;;;;;;;;4996104;28;20532;-78
2021/10/28 18:25:23;;;;;;;26.65;17.35;;;;;;;;;;4996257;28;20919;-77
2021/10/28 18:27:55;;;;;;;26.88;17.52;;;;;;;;;;4995200;28;20183;-76
2021/10/28 18:30:21;;;;;;;22.30;16.50;;;;;;;;;;4994812;28;20179;-77
2021/10/28 18:32:47;;;;;;;21.77;16.50;;;;;;;;;;4994626;28;20199;-78
2021/10/28 18:35:13;;;;;;;24.83;17.27;;;;;;;;;;4994791;28;20545;-78
2021/10/28 18:37:41;;;;;;;24.77;16.90;;;;;;;;;;4995898;28;20421;-79
2021/10/28 18:40:08;;;;;;;22.85;17.50;;;;;;;;;;4995953;28;20199;-77
2021/10/28 18:42:35;;;;;;;23.27;17.30;;;;;;;;;;4995521;28;20200;-77
2021/10/28 18:45:02;;;;;;;24.23;17.77;;;;;;;;;;4995779;28;20187;-78
2021/10/28 18:47:28;;;;;;;25.30;17.10;;;;;;;;;;4995620;28;20199;-77
2021/10/28 18:49:54;;;;;;;27.92;17.50;;;;;;;;;;4978458;28;20184;-77
2021/10/28 18:52:21;;;;;;;23.27;16.55;;;;;;;;;;4995642;28;20285;-77
2021/10/28 18:54:50;;;;;;;24.05;17.67;;;;;;;;;;4995741;28;20215;-75
2021/10/28 18:57:17;;;;;;;27.70;17.38;;;;;;;;;;4995609;28;20211;-77
2021/10/28 18:59:43;;;;;;;28.42;19.58;;;;;;;;;;4995545;28;20182;-76
2021/10/28 19:02:09;;;;;;;26.02;18.48;;;;;;;;;;4995242;28;20199;-76
2021/10/28 19:04:38;;;;;;;31.98;19.05;;;;;;;;;;4995562;28;20171;-77
2021/10/28 19:07:05;;;;;;;30.52;20.38;;;;;;;;;;4995443;28;20207;-75
2021/10/28 19:09:31;;;;;;;32.42;21.00;;;;;;;;;;4994185;28;20278;-76
2021/10/28 19:11:58;;;;;;;37.28;21.20;;;;;;;;;;4995076;28;20207;-78
2021/10/28 19:14:24;;;;;;;39.53;22.63;;;;;;;;;;4995557;28;20180;-77
2021/10/28 19:16:50;;;;;;;31.92;21.58;;;;;;;;;;4995540;28;20241;-78
2021/10/28 19:19:17;;;;;;;31.92;19.67;;;;;;;;;;4995478;28;20222;-78
2021/10/28 19:21:43;;;;;;;28.08;19.42;;;;;;;;;;4994870;28;20200;-78
2021/10/28 19:24:09;;;;;;;30.38;19.77;;;;;;;;;;4995240;28;20175;-77
2021/10/28 19:26:35;;;;;;;30.02;18.50;;;;;;;;;;4993813;28;20183;-79
2021/10/28 19:29:04;;;;;;;30.02;18.35;;;;;;;;;;4994194;28;20183;-77
2021/10/28 19:31:34;;;;;;;33.15;19.42;;;;;;;;;;4994652;28;20215;-79
2021/10/28 19:34:02;;;;;;;32.88;19.10;;;;;;;;;;4994992;28;20709;-76
2021/10/28 19:36:38;;;;;;;30.85;19.13;;;;;;;;;;4995105;28;20199;-77
2021/10/28 19:41:55;;;;;;;27.70;17.75;;;;;;;;;;4994567;28;20198;-77
2021/10/28 19:47:07;;;;;;;28.73;19.23;;;;;;;;;;4994816;28;20609;-78
2021/10/28 19:49:33;;;;;;;33.25;20.23;;;;;;;;;;4995049;28;20230;-77
2021/10/28 19:52:04;;;;;;;31.98;19.92;;;;;;;;;;4994193;28;20515;-77
2021/10/28 19:54:31;;;;;;;40.42;23.02;;;;;;;;;;4994740;28;20175;-78
2021/10/28 19:56:57;;;;;;;42.10;21.90;;;;;;;;;;4994538;28;20203;-78
2021/10/28 19:59:26;;;;;;;45.57;22.80;;;;;;;;;;4993233;28;20334;-77
2021/10/28 20:01:56;;;;;;;32.03;20.38;;;;;;;;;;4994018;28;20852;-78
2021/10/28 20:07:01;;;;;;;30.37;20.10;;;;;;;;;;4994620;28;20188;-78
2021/10/28 20:20:37;;;;;;;30.27;19.58;;;;;;;;;;4994254;28;20186;-76
2021/10/28 20:23:04;;;;;;;39.33;22.45;;;;;;;;;;4992445;28;20203;-77
2021/10/28 20:25:30;;;;;;;35.03;20.70;;;;;;;;;;4994253;28;20179;-78
2021/10/28 20:27:58;;;;;;;31.90;20.73;;;;;;;;;;4994305;28;20630;-76
2021/10/28 20:30:30;;;;;;;37.83;21.65;;;;;;;;;;4994166;28;20278;-78
2021/10/28 20:32:56;;;;;;;38.03;21.88;;;;;;;;;;4992346;28;20258;-78
2021/10/28 20:37:51;;;;;;;38.60;23.45;;;;;;;;;;4992925;28;20414;-77
2021/10/28 20:40:17;;;;;;;48.05;22.13;;;;;;;;;;4993914;28;20168;-78
2021/10/28 20:42:47;;;;;;;44.33;24.73;;;;;;;;;;4993680;28;20238;-77
2021/10/28 20:45:17;;;;;;;39.28;24.25;;;;;;;;;;4994222;28;20584;-79
2021/10/28 20:47:44;;;;;;;35.85;22.40;;;;;;;;;;4993807;28;20172;-78
2021/10/28 20:50:11;;;;;;;40.03;23.20;;;;;;;;;;4992364;28;20291;-78
2021/10/28 20:52:38;;;;;;;36.63;21.70;;;;;;;;;;4992978;28;20568;-78
2021/10/28 20:55:04;;;;;;;29.23;20.48;;;;;;;;;;4993732;28;20175;-77
2021/10/28 20:57:30;;;;;;;32.05;21.40;;;;;;;;;;4992425;28;20194;-77
2021/10/28 20:59:56;;;;;;;29.35;20.23;;;;;;;;;;4993718;28;20179;-75
2021/10/28 21:02:22;;;;;;;43.70;21.07;;;;;;;;;;4991938;28;20246;-76
2021/10/28 21:04:48;;;;;;;31.60;20.65;;;;;;;;;;4993581;28;20900;-78
2021/10/28 21:07:15;;;;;;;30.63;21.50;;;;;;;;;;4993672;28;20187;-78
2021/10/28 21:09:41;;;;;;;33.70;20.02;;;;;;;;;;4976295;28;20191;-76
2021/10/28 21:12:07;;;;;;;38.20;21.17;;;;;;;;;;4991881;28;20203;-76
2021/10/28 21:14:33;;;;;;;34.22;20.73;;;;;;;;;;4992211;28;20422;-76
2021/10/28 21:16:59;;;;;;;33.08;18.83;;;;;;;;;;4992119;28;20687;-75
2021/10/28 21:19:25;;;;;;;29.50;18.50;;;;;;;;;;4992557;28;20254;-78
2021/10/28 21:21:57;;;;;;;32.20;20.75;;;;;;;;;;4993359;28;20192;-79
2021/10/28 21:24:23;;;;;;;31.92;19.10;;;;;;;;;;4993538;28;20179;-77
2021/10/28 21:26:49;;;;;;;35.53;19.75;;;;;;;;;;4992207;28;20668;-77
2021/10/28 21:29:15;;;;;;;29.40;19.30;;;;;;;;;;4993604;28;20211;-75
2021/10/28 21:31:41;;;;;;;31.85;18.15;;;;;;;;;;4991636;28;20696;-76
2021/10/28 21:34:07;;;;;;;29.85;16.58;;;;;;;;;;4993590;28;20568;-75
2021/10/28 21:36:33;;;;;;;30.27;18.97;;;;;;;;;;4993115;28;20207;-75
2021/10/28 21:38:59;;;;;;;30.48;18.17;;;;;;;;;;4993236;28;20409;-77
2021/10/28 21:41:25;;;;;;;36.37;21.33;;;;;;;;;;4993194;28;20191;-76
2021/10/28 21:43:52;;;;;;;43.75;20.55;;;;;;;;;;4993182;28;20473;-77
2021/10/28 21:46:18;;;;;;;30.60;19.42;;;;;;;;;;4993368;28;20171;-77
2021/10/28 21:48:47;;;;;;;30.27;18.98;;;;;;;;;;4993158;28;20183;-78
2021/10/28 21:51:13;;;;;;;31.35;19.55;;;;;;;;;;4992986;28;20215;-78
2021/10/28 21:53:42;;;;;;;26.73;17.92;;;;;;;;;;4993393;28;20606;-76
2021/10/28 22:25:32;;;;;;;23.52;15.90;;;;;;;;;;4996619;28;20194;-77
2021/10/28 22:27:58;;;;;;;23.57;16.10;;;;;;;;;;4994916;28;20183;-75
2021/10/28 22:30:25;;;;;;;23.52;15.02;;;;;;;;;;4996107;28;20923;-77
2021/10/28 22:32:53;;;;;;;27.05;17.05;;;;;;;;;;4995778;28;20281;-77
2021/10/28 22:35:28;;;;;;;24.33;16.40;;;;;;;;;;4996200;28;20179;-77
2021/10/28 22:40:37;;;;;;;29.67;17.02;;;;;;;;;;4996040;28;20266;-79
2021/10/28 22:43:07;;;;;;;23.77;15.25;;;;;;;;;;4995745;28;20545;-77
2021/10/28 22:45:34;;;;;;;29.20;16.20;;;;;;;;;;4995946;28;20171;-79
2021/10/28 22:48:00;;;;;;;21.10;15.18;;;;;;;;;;4994745;28;20553;-76
2021/10/28 22:50:26;;;;;;;23.02;15.75;;;;;;;;;;4994613;28;20190;-76
2021/10/28 22:52:54;;;;;;;24.00;15.32;;;;;;;;;;4995385;28;20197;-77
2021/10/28 22:55:22;;;;;;;21.90;15.77;;;;;;;;;;4995523;28;20179;-76
2021/10/28 23:03:04;;;;;;;18.47;14.57;;;;;;;;;;4995341;28;20588;-76
2021/10/28 23:22:09;;;;;;;20.48;14.65;;;;;;;;;;4972768;28;20290;-77
2021/10/28 23:24:35;;;;;;;19.27;13.32;;;;;;;;;;4995289;28;20310;-77
2021/10/28 23:27:04;;;;;;;21.90;15.63;;;;;;;;;;4995338;28;20180;-77
2021/10/28 23:29:30;;;;;;;19.00;14.35;;;;;;;;;;4995190;28;20172;-78
2021/10/28 23:31:57;;;;;;;20.75;13.70;;;;;;;;;;4994842;28;20326;-76
2021/10/28 23:34:26;;;;;;;19.03;13.90;;;;;;;;;;4993878;28;20282;-78
2021/10/28 23:36:52;;;;;;;20.65;13.88;;;;;;;;;;4995009;28;20473;-76
2021/10/28 23:39:18;;;;;;;18.63;13.10;;;;;;;;;;4994955;28;20167;-76
2021/10/28 23:41:44;;;;;;;18.63;12.93;;;;;;;;;;4994353;28;20427;-75
2021/10/28 23:44:10;;;;;;;17.00;12.80;;;;;;;;;;4994846;28;20892;-76
2021/10/28 23:46:37;;;;;;;19.20;12.60;;;;;;;;;;4994804;28;20414;-75
2021/10/28 23:49:03;;;;;;;15.98;12.20;;;;;;;;;;4994631;28;20191;-78
2021/10/28 23:51:29;;;;;;;19.60;13.25;;;;;;;;;;4994323;28;20218;-76
2021/10/28 23:53:55;;;;;;;17.35;11.93;;;;;;;;;;4994533;28;20699;-75
2021/10/28 23:56:21;;;;;;;17.03;12.80;;;;;;;;;;4994560;28;20215;-77
2021/10/28 23:58:47;;;;;;;16.95;12.55;;;;;;;;;;4994635;28;20485;-78
